sensor_id;sensor_type;location;lat;lon;timestamp;pressure;altitude;pressure_sealevel;temperature;humidity
40117;BME280;25829;50.228;18.936;2023-12-20T00:01:25;98041.56;;;6.79;52.81
40117;BME280;25829;50.228;18.936;2023-12-20T00:04:25;98027.22;;;6.75;52.86
40117;BME280;25829;50.228;18.936;2023-12-20T00:07:26;98019.13;;;6.70;52.57
40117;BME280;25829;50.228;18.936;2023-12-20T00:10:27;98023.56;;;6.69;52.94
40117;BME280;25829;50.228;18.936;2023-12-20T00:13:28;98018.91;;;6.65;52.69
40117;BME280;25829;50.228;18.936;2023-12-20T00:16:28;98017.47;;;6.62;53.49
40117;BME280;25829;50.228;18.936;2023-12-20T00:19:29;98010.00;;;6.59;53.96
40117;BME280;25829;50.228;18.936;2023-12-20T00:22:30;98003.31;;;6.57;53.84
40117;BME280;25829;50.228;18.936;2023-12-20T00:25:31;98002.47;;;6.49;53.19
40117;BME280;25829;50.228;18.936;2023-12-20T00:28:31;97984.88;;;6.43;52.90
40117;BME280;25829;50.228;18.936;2023-12-20T00:31:32;97999.22;;;6.41;52.65
40117;BME280;25829;50.228;18.936;2023-12-20T00:34:33;97984.47;;;6.40;52.67
40117;BME280;25829;50.228;18.936;2023-12-20T00:37:34;98004.03;;;6.37;52.33
40117;BME280;25829;50.228;18.936;2023-12-20T00:40:35;97999.97;;;6.35;51.82
40117;BME280;25829;50.228;18.936;2023-12-20T00:43:35;98007.81;;;6.35;51.21
40117;BME280;25829;50.228;18.936;2023-12-20T00:46:36;97994.91;;;6.33;50.81
40117;BME280;25829;50.228;18.936;2023-12-20T00:49:37;97989.88;;;6.31;50.97
40117;BME280;25829;50.228;18.936;2023-12-20T00:52:37;97989.47;;;6.35;50.24
40117;BME280;25829;50.228;18.936;2023-12-20T00:55:38;97983.50;;;6.41;50.60
40117;BME280;25829;50.228;18.936;2023-12-20T00:58:39;97965.94;;;6.41;49.36
40117;BME280;25829;50.228;18.936;2023-12-20T01:01:40;97958.91;;;6.42;48.71
40117;BME280;25829;50.228;18.936;2023-12-20T01:04:40;97939.53;;;6.43;49.25
40117;BME280;25829;50.228;18.936;2023-12-20T01:07:41;97936.38;;;6.47;49.36
40117;BME280;25829;50.228;18.936;2023-12-20T01:10:42;97923.69;;;6.51;49.41
40117;BME280;25829;50.228;18.936;2023-12-20T01:13:43;97960.53;;;6.49;48.63
40117;BME280;25829;50.228;18.936;2023-12-20T01:16:44;97946.84;;;6.47;48.47
40117;BME280;25829;50.228;18.936;2023-12-20T01:19:45;97904.50;;;6.44;48.60
40117;BME280;25829;50.228;18.936;2023-12-20T01:22:45;97935.16;;;6.50;48.62
40117;BME280;25829;50.228;18.936;2023-12-20T01:25:46;97933.31;;;6.50;47.74
40117;BME280;25829;50.228;18.936;2023-12-20T01:28:47;97910.56;;;6.51;47.65
40117;BME280;25829;50.228;18.936;2023-12-20T01:31:48;97912.38;;;6.50;47.87
40117;BME280;25829;50.228;18.936;2023-12-20T01:34:50;97919.25;;;6.51;48.33
40117;BME280;25829;50.228;18.936;2023-12-20T01:37:50;97881.75;;;6.51;48.36
40117;BME280;25829;50.228;18.936;2023-12-20T01:40:51;97914.81;;;6.52;48.22
40117;BME280;25829;50.228;18.936;2023-12-20T01:43:52;97920.03;;;6.52;47.62
40117;BME280;25829;50.228;18.936;2023-12-20T01:46:53;97914.22;;;6.57;48.22
40117;BME280;25829;50.228;18.936;2023-12-20T01:49:55;97930.75;;;6.57;48.45
40117;BME280;25829;50.228;18.936;2023-12-20T01:52:58;97927.94;;;6.59;48.03
40117;BME280;25829;50.228;18.936;2023-12-20T01:56:01;97912.63;;;6.62;48.62
40117;BME280;25829;50.228;18.936;2023-12-20T01:59:02;97910.81;;;6.63;48.67
40117;BME280;25829;50.228;18.936;2023-12-20T02:02:05;97910.22;;;6.67;48.76
40117;BME280;25829;50.228;18.936;2023-12-20T02:05:07;97904.81;;;6.69;48.39
40117;BME280;25829;50.228;18.936;2023-12-20T02:08:08;97890.06;;;6.68;48.37
40117;BME280;25829;50.228;18.936;2023-12-20T02:11:10;97897.91;;;6.68;48.63
40117;BME280;25829;50.228;18.936;2023-12-20T02:14:10;97896.53;;;6.65;48.18
40117;BME280;25829;50.228;18.936;2023-12-20T02:17:11;97917.09;;;6.68;48.51
40117;BME280;25829;50.228;18.936;2023-12-20T02:20:12;97894.50;;;6.67;48.67
40117;BME280;25829;50.228;18.936;2023-12-20T02:23:13;97904.19;;;6.67;48.69
40117;BME280;25829;50.228;18.936;2023-12-20T02:26:14;97915.84;;;6.64;48.40
40117;BME280;25829;50.228;18.936;2023-12-20T02:29:15;97899.53;;;6.62;48.99
40117;BME280;25829;50.228;18.936;2023-12-20T02:32:19;97902.97;;;6.63;49.03
40117;BME280;25829;50.228;18.936;2023-12-20T02:35:20;97914.44;;;6.62;49.03
40117;BME280;25829;50.228;18.936;2023-12-20T02:38:21;97901.53;;;6.60;48.83
40117;BME280;25829;50.228;18.936;2023-12-20T02:41:22;97899.28;;;6.57;48.97
40117;BME280;25829;50.228;18.936;2023-12-20T02:48:14;97881.16;;;6.55;49.01
40117;BME280;25829;50.228;18.936;2023-12-20T02:51:15;97871.44;;;6.49;48.63
40117;BME280;25829;50.228;18.936;2023-12-20T02:54:16;97900.66;;;6.46;49.17
40117;BME280;25829;50.228;18.936;2023-12-20T02:57:16;97879.91;;;6.45;49.26
40117;BME280;25829;50.228;18.936;2023-12-20T03:00:17;97875.84;;;6.42;51.09
40117;BME280;25829;50.228;18.936;2023-12-20T03:03:18;97867.41;;;6.40;52.29
40117;BME280;25829;50.228;18.936;2023-12-20T03:06:19;97882.25;;;6.33;52.57
40117;BME280;25829;50.228;18.936;2023-12-20T03:09:19;97874.78;;;6.23;54.10
40117;BME280;25829;50.228;18.936;2023-12-20T03:12:20;97881.38;;;6.13;54.86
40117;BME280;25829;50.228;18.936;2023-12-20T03:15:21;97881.50;;;6.04;55.27
40117;BME280;25829;50.228;18.936;2023-12-20T03:18:21;97884.72;;;6.00;56.57
40117;BME280;25829;50.228;18.936;2023-12-20T03:21:22;97882.03;;;5.93;56.90
40117;BME280;25829;50.228;18.936;2023-12-20T03:24:23;97870.53;;;5.88;57.43
40117;BME280;25829;50.228;18.936;2023-12-20T03:27:24;97878.13;;;5.82;57.96
40117;BME280;25829;50.228;18.936;2023-12-20T03:30:24;97877.44;;;5.74;58.70
40117;BME280;25829;50.228;18.936;2023-12-20T03:33:25;97871.56;;;5.65;59.69
40117;BME280;25829;50.228;18.936;2023-12-20T03:36:26;97880.59;;;5.63;60.28
40117;BME280;25829;50.228;18.936;2023-12-20T03:39:27;97885.59;;;5.57;60.76
40117;BME280;25829;50.228;18.936;2023-12-20T03:42:27;97879.09;;;5.53;60.69
40117;BME280;25829;50.228;18.936;2023-12-20T03:45:28;97885.72;;;5.49;61.01
40117;BME280;25829;50.228;18.936;2023-12-20T03:48:29;97884.69;;;5.44;61.69
40117;BME280;25829;50.228;18.936;2023-12-20T03:51:30;97888.84;;;5.38;61.71
40117;BME280;25829;50.228;18.936;2023-12-20T03:54:30;97877.53;;;5.31;62.54
40117;BME280;25829;50.228;18.936;2023-12-20T03:57:31;97883.31;;;5.26;62.83
40117;BME280;25829;50.228;18.936;2023-12-20T04:00:32;97883.84;;;5.22;62.96
40117;BME280;25829;50.228;18.936;2023-12-20T04:03:33;97892.06;;;5.19;63.17
40117;BME280;25829;50.228;18.936;2023-12-20T04:06:33;97900.50;;;5.14;63.44
40117;BME280;25829;50.228;18.936;2023-12-20T04:09:34;97897.28;;;5.12;64.18
40117;BME280;25829;50.228;18.936;2023-12-20T04:12:35;97896.00;;;5.08;63.83
40117;BME280;25829;50.228;18.936;2023-12-20T04:15:36;97896.56;;;5.03;64.58
40117;BME280;25829;50.228;18.936;2023-12-20T04:18:37;97906.16;;;4.96;64.64
40117;BME280;25829;50.228;18.936;2023-12-20T04:21:37;97900.84;;;4.89;65.02
40117;BME280;25829;50.228;18.936;2023-12-20T04:24:38;97892.75;;;4.84;65.52
40117;BME280;25829;50.228;18.936;2023-12-20T04:27:39;97888.25;;;4.78;65.37
40117;BME280;25829;50.228;18.936;2023-12-20T04:30:39;97909.69;;;4.74;66.16
40117;BME280;25829;50.228;18.936;2023-12-20T04:33:40;97903.88;;;4.72;66.08
40117;BME280;25829;50.228;18.936;2023-12-20T04:36:41;97902.63;;;4.68;66.50
40117;BME280;25829;50.228;18.936;2023-12-20T04:39:41;97894.78;;;4.68;66.33
40117;BME280;25829;50.228;18.936;2023-12-20T04:42:43;97889.91;;;4.64;66.95
40117;BME280;25829;50.228;18.936;2023-12-20T04:45:43;97891.88;;;4.62;66.84
40117;BME280;25829;50.228;18.936;2023-12-20T04:48:44;97880.19;;;4.58;66.87
40117;BME280;25829;50.228;18.936;2023-12-20T04:51:45;97880.75;;;4.54;66.79
40117;BME280;25829;50.228;18.936;2023-12-20T04:54:45;97870.84;;;4.49;67.09
40117;BME280;25829;50.228;18.936;2023-12-20T04:57:46;97879.03;;;4.46;67.91
40117;BME280;25829;50.228;18.936;2023-12-20T05:00:47;97872.03;;;4.47;67.59
40117;BME280;25829;50.228;18.936;2023-12-20T05:03:47;97861.59;;;4.47;67.91
40117;BME280;25829;50.228;18.936;2023-12-20T05:06:48;97871.19;;;4.46;67.81
40117;BME280;25829;50.228;18.936;2023-12-20T05:09:50;97862.31;;;4.40;67.93
40117;BME280;25829;50.228;18.936;2023-12-20T05:12:51;97868.53;;;4.39;68.23
40117;BME280;25829;50.228;18.936;2023-12-20T05:15:51;97868.88;;;4.36;68.32
40117;BME280;25829;50.228;18.936;2023-12-20T05:18:52;97867.81;;;4.31;68.70
40117;BME280;25829;50.228;18.936;2023-12-20T05:21:53;97865.91;;;4.25;68.84
40117;BME280;25829;50.228;18.936;2023-12-20T05:24:54;97868.88;;;4.22;68.73
40117;BME280;25829;50.228;18.936;2023-12-20T05:27:54;97873.50;;;4.20;68.92
40117;BME280;25829;50.228;18.936;2023-12-20T05:30:56;97873.84;;;4.16;69.30
40117;BME280;25829;50.228;18.936;2023-12-20T05:33:57;97869.44;;;4.17;69.41
40117;BME280;25829;50.228;18.936;2023-12-20T05:36:58;97870.25;;;4.17;69.78
40117;BME280;25829;50.228;18.936;2023-12-20T05:39:58;97866.81;;;4.17;69.42
40117;BME280;25829;50.228;18.936;2023-12-20T05:42:59;97868.75;;;4.08;69.49
40117;BME280;25829;50.228;18.936;2023-12-20T05:46:00;97862.88;;;4.06;69.85
40117;BME280;25829;50.228;18.936;2023-12-20T05:49:01;97867.09;;;4.07;69.80
40117;BME280;25829;50.228;18.936;2023-12-20T05:52:01;97860.91;;;4.08;69.90
40117;BME280;25829;50.228;18.936;2023-12-20T05:55:02;97851.78;;;4.04;70.06
40117;BME280;25829;50.228;18.936;2023-12-20T05:58:03;97862.22;;;4.04;70.25
40117;BME280;25829;50.228;18.936;2023-12-20T06:01:05;97859.16;;;4.01;70.31
40117;BME280;25829;50.228;18.936;2023-12-20T06:04:06;97864.38;;;4.01;70.49
40117;BME280;25829;50.228;18.936;2023-12-20T06:07:07;97862.78;;;4.00;70.34
40117;BME280;25829;50.228;18.936;2023-12-20T06:10:07;97867.44;;;4.04;70.72
40117;BME280;25829;50.228;18.936;2023-12-20T06:13:08;97867.09;;;4.07;70.43
40117;BME280;25829;50.228;18.936;2023-12-20T06:16:09;97861.44;;;4.04;70.18
40117;BME280;25829;50.228;18.936;2023-12-20T06:19:10;97863.06;;;4.05;70.39
40117;BME280;25829;50.228;18.936;2023-12-20T06:22:10;97859.25;;;4.07;70.62
40117;BME280;25829;50.228;18.936;2023-12-20T06:25:11;97870.97;;;4.11;70.39
40117;BME280;25829;50.228;18.936;2023-12-20T06:28:12;97868.34;;;4.11;70.50
40117;BME280;25829;50.228;18.936;2023-12-20T06:31:15;97870.78;;;4.13;70.10
40117;BME280;25829;50.228;18.936;2023-12-20T06:34:15;97869.19;;;4.12;70.17
40117;BME280;25829;50.228;18.936;2023-12-20T06:37:16;97877.00;;;4.12;70.59
40117;BME280;25829;50.228;18.936;2023-12-20T06:40:17;97880.59;;;4.11;70.94
40117;BME280;25829;50.228;18.936;2023-12-20T06:43:17;97884.47;;;4.15;70.66
40117;BME280;25829;50.228;18.936;2023-12-20T06:46:18;97888.72;;;4.16;70.53
40117;BME280;25829;50.228;18.936;2023-12-20T06:49:19;97887.91;;;4.15;70.55
40117;BME280;25829;50.228;18.936;2023-12-20T06:52:20;97890.06;;;4.12;71.01
40117;BME280;25829;50.228;18.936;2023-12-20T06:55:21;97887.63;;;4.10;70.97
40117;BME280;25829;50.228;18.936;2023-12-20T06:58:22;97895.19;;;4.05;71.40
40117;BME280;25829;50.228;18.936;2023-12-20T07:01:23;97890.69;;;3.99;71.31
40117;BME280;25829;50.228;18.936;2023-12-20T07:04:24;97897.50;;;4.00;71.69
40117;BME280;25829;50.228;18.936;2023-12-20T07:07:24;97895.91;;;3.99;71.63
40117;BME280;25829;50.228;18.936;2023-12-20T07:10:25;97893.66;;;3.96;72.07
40117;BME280;25829;50.228;18.936;2023-12-20T07:13:29;97895.44;;;3.96;72.08
40117;BME280;25829;50.228;18.936;2023-12-20T07:16:30;97896.06;;;3.98;72.12
40117;BME280;25829;50.228;18.936;2023-12-20T07:19:31;97887.44;;;3.97;71.90
40117;BME280;25829;50.228;18.936;2023-12-20T07:22:33;97899.50;;;3.98;72.08
40117;BME280;25829;50.228;18.936;2023-12-20T07:28:57;97903.72;;;3.99;72.40
40117;BME280;25829;50.228;18.936;2023-12-20T07:31:59;97905.88;;;3.96;72.57
40117;BME280;25829;50.228;18.936;2023-12-20T07:35:02;97906.88;;;3.95;72.30
40117;BME280;25829;50.228;18.936;2023-12-20T07:38:03;97910.00;;;3.90;72.88
40117;BME280;25829;50.228;18.936;2023-12-20T07:41:04;97916.13;;;3.82;72.95
40117;BME280;25829;50.228;18.936;2023-12-20T07:44:06;97924.31;;;3.79;73.08
40117;BME280;25829;50.228;18.936;2023-12-20T07:47:07;97917.63;;;3.77;73.04
40117;BME280;25829;50.228;18.936;2023-12-20T07:50:08;97912.16;;;3.72;73.49
40117;BME280;25829;50.228;18.936;2023-12-20T07:53:08;97912.03;;;3.65;73.70
40117;BME280;25829;50.228;18.936;2023-12-20T07:56:19;97926.88;;;3.64;73.69
40117;BME280;25829;50.228;18.936;2023-12-20T07:59:20;97921.03;;;3.62;73.94
40117;BME280;25829;50.228;18.936;2023-12-20T08:02:21;97918.75;;;3.59;74.35
40117;BME280;25829;50.228;18.936;2023-12-20T08:05:22;97912.47;;;3.54;74.17
40117;BME280;25829;50.228;18.936;2023-12-20T08:08:22;97921.09;;;3.54;74.35
40117;BME280;25829;50.228;18.936;2023-12-20T08:11:23;97918.84;;;3.51;74.37
40117;BME280;25829;50.228;18.936;2023-12-20T08:14:24;97923.06;;;3.52;74.61
40117;BME280;25829;50.228;18.936;2023-12-20T08:17:24;97916.78;;;3.47;74.58
40117;BME280;25829;50.228;18.936;2023-12-20T08:20:25;97915.78;;;3.48;74.80
40117;BME280;25829;50.228;18.936;2023-12-20T08:23:26;97907.94;;;3.48;74.59
40117;BME280;25829;50.228;18.936;2023-12-20T08:26:27;97907.59;;;3.51;74.64
40117;BME280;25829;50.228;18.936;2023-12-20T08:29:28;97909.22;;;3.52;74.82
40117;BME280;25829;50.228;18.936;2023-12-20T08:32:28;97903.66;;;3.55;74.36
40117;BME280;25829;50.228;18.936;2023-12-20T08:35:29;97905.25;;;3.56;74.45
40117;BME280;25829;50.228;18.936;2023-12-20T08:38:30;97918.31;;;3.56;74.75
40117;BME280;25829;50.228;18.936;2023-12-20T08:41:31;97917.63;;;3.62;74.85
40117;BME280;25829;50.228;18.936;2023-12-20T08:44:32;97920.22;;;3.62;74.58
40117;BME280;25829;50.228;18.936;2023-12-20T08:47:33;97928.69;;;3.64;74.83
40117;BME280;25829;50.228;18.936;2023-12-20T08:50:34;97930.75;;;3.68;74.50
40117;BME280;25829;50.228;18.936;2023-12-20T08:53:35;97922.13;;;3.68;74.49
40117;BME280;25829;50.228;18.936;2023-12-20T08:56:36;97922.78;;;3.70;74.62
40117;BME280;25829;50.228;18.936;2023-12-20T08:59:37;97926.34;;;3.69;74.66
40117;BME280;25829;50.228;18.936;2023-12-20T09:02:38;97919.16;;;3.71;74.60
40117;BME280;25829;50.228;18.936;2023-12-20T09:05:39;97922.22;;;3.75;74.40
40117;BME280;25829;50.228;18.936;2023-12-20T09:08:40;97923.69;;;3.77;74.53
40117;BME280;25829;50.228;18.936;2023-12-20T09:11:40;97921.53;;;3.81;74.82
40117;BME280;25829;50.228;18.936;2023-12-20T09:14:41;97913.97;;;3.86;74.71
40117;BME280;25829;50.228;18.936;2023-12-20T09:17:42;97915.78;;;3.85;74.35
40117;BME280;25829;50.228;18.936;2023-12-20T09:20:44;97914.44;;;3.89;74.61
40117;BME280;25829;50.228;18.936;2023-12-20T09:23:45;97918.28;;;3.93;74.49
40117;BME280;25829;50.228;18.936;2023-12-20T09:26:45;97923.97;;;3.97;74.39
40117;BME280;25829;50.228;18.936;2023-12-20T09:29:46;97920.03;;;4.01;74.75
40117;BME280;25829;50.228;18.936;2023-12-20T09:32:48;97911.22;;;4.02;74.72
40117;BME280;25829;50.228;18.936;2023-12-20T09:35:49;97906.34;;;3.99;74.49
40117;BME280;25829;50.228;18.936;2023-12-20T09:38:50;97910.56;;;4.00;74.66
40117;BME280;25829;50.228;18.936;2023-12-20T09:42:02;97903.19;;;4.04;74.79
40117;BME280;25829;50.228;18.936;2023-12-20T09:45:08;97897.97;;;4.04;74.73
40117;BME280;25829;50.228;18.936;2023-12-20T09:48:10;97898.78;;;4.04;74.89
40117;BME280;25829;50.228;18.936;2023-12-20T09:51:12;97897.16;;;4.03;75.09
40117;BME280;25829;50.228;18.936;2023-12-20T09:54:17;97889.97;;;4.05;74.81
40117;BME280;25829;50.228;18.936;2023-12-20T09:57:18;97892.75;;;4.04;74.97
40117;BME280;25829;50.228;18.936;2023-12-20T10:00:19;97888.34;;;4.04;74.74
40117;BME280;25829;50.228;18.936;2023-12-20T10:03:24;97882.75;;;4.07;75.02
40117;BME280;25829;50.228;18.936;2023-12-20T10:06:25;97887.63;;;4.10;74.81
40117;BME280;25829;50.228;18.936;2023-12-20T10:09:28;97890.22;;;4.10;74.53
40117;BME280;25829;50.228;18.936;2023-12-20T10:12:29;97888.78;;;4.08;75.35
40117;BME280;25829;50.228;18.936;2023-12-20T10:15:30;97888.34;;;4.04;75.02
40117;BME280;25829;50.228;18.936;2023-12-20T10:18:32;97893.38;;;4.06;75.22
40117;BME280;25829;50.228;18.936;2023-12-20T10:21:32;97891.94;;;4.03;75.42
40117;BME280;25829;50.228;18.936;2023-12-20T10:24:33;97891.50;;;4.00;75.08
40117;BME280;25829;50.228;18.936;2023-12-20T10:27:34;97890.41;;;3.94;75.43
40117;BME280;25829;50.228;18.936;2023-12-20T10:30:35;97890.13;;;3.89;75.92
40117;BME280;25829;50.228;18.936;2023-12-20T10:33:36;97894.53;;;3.88;75.92
40117;BME280;25829;50.228;18.936;2023-12-20T10:36:37;97893.91;;;3.86;75.65
40117;BME280;25829;50.228;18.936;2023-12-20T10:39:38;97891.94;;;3.88;75.78
40117;BME280;25829;50.228;18.936;2023-12-20T10:42:40;97892.38;;;3.92;75.89
40117;BME280;25829;50.228;18.936;2023-12-20T10:45:44;97887.97;;;3.92;75.94
40117;BME280;25829;50.228;18.936;2023-12-20T10:48:46;97888.63;;;3.95;75.70
40117;BME280;25829;50.228;18.936;2023-12-20T10:51:47;97887.16;;;3.92;75.71
40117;BME280;25829;50.228;18.936;2023-12-20T10:54:49;97892.38;;;3.92;76.22
40117;BME280;25829;50.228;18.936;2023-12-20T10:58:01;97888.97;;;3.91;75.90
40117;BME280;25829;50.228;18.936;2023-12-20T11:01:03;97882.50;;;3.87;76.40
40117;BME280;25829;50.228;18.936;2023-12-20T11:04:06;97890.13;;;3.89;76.42
40117;BME280;25829;50.228;18.936;2023-12-20T11:07:29;97887.97;;;3.92;76.33
40117;BME280;25829;50.228;18.936;2023-12-20T11:10:44;97883.41;;;3.95;76.06
40117;BME280;25829;50.228;18.936;2023-12-20T11:13:57;97877.34;;;3.94;76.42
40117;BME280;25829;50.228;18.936;2023-12-20T11:20:09;97882.50;;;4.02;76.16
40117;BME280;25829;50.228;18.936;2023-12-20T11:23:12;97863.50;;;4.08;76.51
40117;BME280;25829;50.228;18.936;2023-12-20T11:26:16;97862.97;;;4.13;75.96
40117;BME280;25829;50.228;18.936;2023-12-20T11:29:34;97864.41;;;4.15;75.96
40117;BME280;25829;50.228;18.936;2023-12-20T11:32:36;97856.94;;;4.12;76.31
40117;BME280;25829;50.228;18.936;2023-12-20T11:35:37;97863.41;;;4.16;76.58
40117;BME280;25829;50.228;18.936;2023-12-20T11:38:54;97862.06;;;4.21;76.32
40117;BME280;25829;50.228;18.936;2023-12-20T11:41:56;97869.88;;;4.21;76.37
40117;BME280;25829;50.228;18.936;2023-12-20T11:45:02;97865.03;;;4.17;76.26
40117;BME280;25829;50.228;18.936;2023-12-20T11:48:04;97859.81;;;4.17;76.52
40117;BME280;25829;50.228;18.936;2023-12-20T11:51:11;97858.44;;;4.22;76.65
40117;BME280;25829;50.228;18.936;2023-12-20T11:54:15;97859.63;;;4.19;76.75
40117;BME280;25829;50.228;18.936;2023-12-20T11:57:16;97859.28;;;4.22;76.29
40117;BME280;25829;50.228;18.936;2023-12-20T12:00:17;97860.09;;;4.23;76.51
40117;BME280;25829;50.228;18.936;2023-12-20T12:03:21;97860.69;;;4.25;76.42
40117;BME280;25829;50.228;18.936;2023-12-20T12:06:22;97853.50;;;4.27;76.35
40117;BME280;25829;50.228;18.936;2023-12-20T12:09:22;97834.13;;;4.21;76.45
40117;BME280;25829;50.228;18.936;2023-12-20T12:12:24;97847.19;;;4.21;76.81
40117;BME280;25829;50.228;18.936;2023-12-20T12:15:27;97847.03;;;4.23;76.58
40117;BME280;25829;50.228;18.936;2023-12-20T12:18:28;97850.25;;;4.25;76.17
40117;BME280;25829;50.228;18.936;2023-12-20T12:21:28;97839.63;;;4.26;76.53
40117;BME280;25829;50.228;18.936;2023-12-20T12:24:29;97851.50;;;4.29;76.88
40117;BME280;25829;50.228;18.936;2023-12-20T12:27:30;97846.19;;;4.37;76.60
40117;BME280;25829;50.228;18.936;2023-12-20T12:30:31;97846.44;;;4.42;76.18
40117;BME280;25829;50.228;18.936;2023-12-20T12:33:31;97842.47;;;4.46;76.05
40117;BME280;25829;50.228;18.936;2023-12-20T12:36:32;97837.72;;;4.50;75.74
40117;BME280;25829;50.228;18.936;2023-12-20T12:39:34;97838.31;;;4.52;76.20
40117;BME280;25829;50.228;18.936;2023-12-20T12:42:34;97840.56;;;4.55;76.18
40117;BME280;25829;50.228;18.936;2023-12-20T12:45:35;97841.81;;;4.59;75.66
40117;BME280;25829;50.228;18.936;2023-12-20T12:48:36;97841.66;;;4.60;75.87
40117;BME280;25829;50.228;18.936;2023-12-20T12:51:37;97845.88;;;4.61;76.02
40117;BME280;25829;50.228;18.936;2023-12-20T12:54:38;97853.16;;;4.66;75.27
40117;BME280;25829;50.228;18.936;2023-12-20T12:57:38;97844.50;;;4.65;75.30
40117;BME280;25829;50.228;18.936;2023-12-20T13:00:39;97837.03;;;4.62;75.48
40117;BME280;25829;50.228;18.936;2023-12-20T13:03:40;97836.88;;;4.49;76.05
40117;BME280;25829;50.228;18.936;2023-12-20T13:06:40;97841.50;;;4.47;76.26
40117;BME280;25829;50.228;18.936;2023-12-20T13:09:42;97838.31;;;4.52;75.71
40117;BME280;25829;50.228;18.936;2023-12-20T13:12:43;97831.28;;;4.52;75.86
40117;BME280;25829;50.228;18.936;2023-12-20T13:15:44;97829.88;;;4.50;75.88
40117;BME280;25829;50.228;18.936;2023-12-20T13:18:51;97832.50;;;4.50;75.72
40117;BME280;25829;50.228;18.936;2023-12-20T13:21:53;97826.69;;;4.54;76.01
40117;BME280;25829;50.228;18.936;2023-12-20T13:24:53;97827.94;;;4.58;76.10
40117;BME280;25829;50.228;18.936;2023-12-20T13:27:54;97829.19;;;4.62;76.13
40117;BME280;25829;50.228;18.936;2023-12-20T13:30:55;97824.41;;;4.66;75.62
40117;BME280;25829;50.228;18.936;2023-12-20T13:33:56;97826.84;;;4.68;75.58
40117;BME280;25829;50.228;18.936;2023-12-20T13:36:57;97826.22;;;4.65;75.37
40117;BME280;25829;50.228;18.936;2023-12-20T13:39:58;97835.06;;;4.64;75.16
40117;BME280;25829;50.228;18.936;2023-12-20T13:42:58;97832.38;;;4.58;75.43
40117;BME280;25829;50.228;18.936;2023-12-20T13:45:59;97829.34;;;4.39;75.89
40117;BME280;25829;50.228;18.936;2023-12-20T13:49:00;97829.56;;;4.23;75.98
40117;BME280;25829;50.228;18.936;2023-12-20T13:52:02;97826.59;;;4.11;76.38
40117;BME280;25829;50.228;18.936;2023-12-20T13:55:04;97829.13;;;4.05;77.00
40117;BME280;25829;50.228;18.936;2023-12-20T13:58:08;97830.75;;;4.06;76.88
40117;BME280;25829;50.228;18.936;2023-12-20T14:01:10;97833.63;;;3.96;76.92
40117;BME280;25829;50.228;18.936;2023-12-20T14:04:12;97837.66;;;3.84;77.46
40117;BME280;25829;50.228;18.936;2023-12-20T14:07:12;97836.69;;;3.85;77.59
40117;BME280;25829;50.228;18.936;2023-12-20T14:10:13;97823.00;;;3.83;77.16
40117;BME280;25829;50.228;18.936;2023-12-20T14:13:14;97833.44;;;3.83;77.26
40117;BME280;25829;50.228;18.936;2023-12-20T14:16:15;97841.34;;;3.89;77.23
40117;BME280;25829;50.228;18.936;2023-12-20T14:19:17;97837.41;;;3.93;77.30
40117;BME280;25829;50.228;18.936;2023-12-20T14:22:18;97832.63;;;3.97;77.00
40117;BME280;25829;50.228;18.936;2023-12-20T14:25:19;97836.44;;;3.95;76.93
40117;BME280;25829;50.228;18.936;2023-12-20T14:28:22;97832.72;;;3.89;76.61
40117;BME280;25829;50.228;18.936;2023-12-20T14:31:23;97828.56;;;3.80;76.59
40117;BME280;25829;50.228;18.936;2023-12-20T14:34:25;97817.06;;;3.74;77.01
40117;BME280;25829;50.228;18.936;2023-12-20T14:37:26;97820.84;;;3.72;76.86
40117;BME280;25829;50.228;18.936;2023-12-20T14:40:27;97824.81;;;3.67;76.78
40117;BME280;25829;50.228;18.936;2023-12-20T14:43:27;97831.19;;;3.65;76.69
40117;BME280;25829;50.228;18.936;2023-12-20T14:46:28;97839.19;;;3.63;76.46
40117;BME280;25829;50.228;18.936;2023-12-20T14:49:30;97844.56;;;3.62;76.26
40117;BME280;25829;50.228;18.936;2023-12-20T14:52:32;97847.38;;;3.60;76.40
40117;BME280;25829;50.228;18.936;2023-12-20T14:55:34;97844.31;;;3.57;76.26
40117;BME280;25829;50.228;18.936;2023-12-20T14:58:35;97837.47;;;3.56;76.08
40117;BME280;25829;50.228;18.936;2023-12-20T15:01:37;97827.41;;;3.53;76.06
40117;BME280;25829;50.228;18.936;2023-12-20T15:14:41;97831.53;;;3.47;75.79
40117;BME280;25829;50.228;18.936;2023-12-20T15:17:42;97833.81;;;3.42;75.95
40117;BME280;25829;50.228;18.936;2023-12-20T15:20:43;97839.22;;;3.40;76.08
40117;BME280;25829;50.228;18.936;2023-12-20T15:23:45;97842.00;;;3.39;76.36
40117;BME280;25829;50.228;18.936;2023-12-20T15:26:55;97834.19;;;3.39;75.88
40117;BME280;25829;50.228;18.936;2023-12-20T15:33:00;97825.97;;;3.42;76.30
40117;BME280;25829;50.228;18.936;2023-12-20T15:39:26;97828.97;;;3.39;76.13
40117;BME280;25829;50.228;18.936;2023-12-20T15:42:28;97826.19;;;3.40;76.42
40117;BME280;25829;50.228;18.936;2023-12-20T15:45:28;97816.75;;;3.39;76.31
40117;BME280;25829;50.228;18.936;2023-12-20T15:48:29;97824.25;;;3.42;76.53
40117;BME280;25829;50.228;18.936;2023-12-20T15:51:30;97815.56;;;3.42;76.29
40117;BME280;25829;50.228;18.936;2023-12-20T15:54:30;97815.22;;;3.45;76.80
40117;BME280;25829;50.228;18.936;2023-12-20T15:57:31;97822.25;;;3.44;76.49
40117;BME280;25829;50.228;18.936;2023-12-20T16:00:32;97816.56;;;3.41;76.63
40117;BME280;25829;50.228;18.936;2023-12-20T16:03:32;97812.50;;;3.38;76.73
40117;BME280;25829;50.228;18.936;2023-12-20T16:06:33;97820.84;;;3.34;76.77
40117;BME280;25829;50.228;18.936;2023-12-20T16:09:35;97812.03;;;3.35;76.82
40117;BME280;25829;50.228;18.936;2023-12-20T16:12:35;97817.56;;;3.40;76.49
40117;BME280;25829;50.228;18.936;2023-12-20T16:15:36;97820.31;;;3.38;76.82
40117;BME280;25829;50.228;18.936;2023-12-20T16:18:37;97830.28;;;3.35;76.71
40117;BME280;25829;50.228;18.936;2023-12-20T16:21:37;97817.09;;;3.36;76.87
40117;BME280;25829;50.228;18.936;2023-12-20T16:24:39;97812.84;;;3.35;76.56
40117;BME280;25829;50.228;18.936;2023-12-20T16:27:40;97815.19;;;3.30;76.46